sensor_id;sensor_type;location;lat;lon;timestamp;temperature;humidity
13488;DHT22;6816;48.506;9.050;2023-05-07T00:05:50;15.20;98.70
13488;DHT22;6816;48.506;9.050;2023-05-07T00:08:50;15.10;99.10
13488;DHT22;6816;48.506;9.050;2023-05-07T00:11:51;15.10;99.40
13488;DHT22;6816;48.506;9.050;2023-05-07T00:14:51;15.10;99.50
13488;DHT22;6816;48.506;9.050;2023-05-07T00:17:53;15.00;99.70
13488;DHT22;6816;48.506;9.050;2023-05-07T00:20:53;15.00;99.80
13488;DHT22;6816;48.506;9.050;2023-05-07T00:23:54;15.00;99.90
13488;DHT22;6816;48.506;9.050;2023-05-07T00:26:55;14.90;99.90
13488;DHT22;6816;48.506;9.050;2023-05-07T00:29:56;14.90;99.90
13488;DHT22;6816;48.506;9.050;2023-05-07T00:32:57;14.90;99.90
13488;DHT22;6816;48.506;9.050;2023-05-07T00:35:57;14.80;99.90
13488;DHT22;6816;48.506;9.050;2023-05-07T00:38:59;14.90;99.90
13488;DHT22;6816;48.506;9.050;2023-05-07T00:42:02;14.80;99.90
13488;DHT22;6816;48.506;9.050;2023-05-07T00:45:03;14.80;99.90
13488;DHT22;6816;48.506;9.050;2023-05-07T00:48:04;14.80;99.90
13488;DHT22;6816;48.506;9.050;2023-05-07T00:51:10;14.60;99.90
13488;DHT22;6816;48.506;9.050;2023-05-07T00:54:12;14.70;99.90
13488;DHT22;6816;48.506;9.050;2023-05-07T00:57:14;14.70;99.90
13488;DHT22;6816;48.506;9.050;2023-05-07T01:00:15;14.60;99.90
13488;DHT22;6816;48.506;9.050;2023-05-07T01:03:16;14.60;99.90
13488;DHT22;6816;48.506;9.050;2023-05-07T01:06:17;14.60;99.90
13488;DHT22;6816;48.506;9.050;2023-05-07T01:09:19;14.60;99.90
13488;DHT22;6816;48.506;9.050;2023-05-07T01:12:21;14.60;99.90
13488;DHT22;6816;48.506;9.050;2023-05-07T01:15:22;14.50;99.90
13488;DHT22;6816;48.506;9.050;2023-05-07T01:18:22;14.50;99.90
13488;DHT22;6816;48.506;9.050;2023-05-07T01:21:25;14.50;99.90
13488;DHT22;6816;48.506;9.050;2023-05-07T01:24:27;14.40;99.90
13488;DHT22;6816;48.506;9.050;2023-05-07T01:27:27;14.40;99.90
13488;DHT22;6816;48.506;9.050;2023-05-07T01:30:29;14.40;99.90
13488;DHT22;6816;48.506;9.050;2023-05-07T01:33:33;14.30;99.90
13488;DHT22;6816;48.506;9.050;2023-05-07T01:36:34;14.30;99.90
13488;DHT22;6816;48.506;9.050;2023-05-07T01:39:37;14.30;99.90
13488;DHT22;6816;48.506;9.050;2023-05-07T01:42:38;14.30;99.90
13488;DHT22;6816;48.506;9.050;2023-05-07T01:45:40;14.20;99.90
13488;DHT22;6816;48.506;9.050;2023-05-07T01:48:41;14.20;99.90
13488;DHT22;6816;48.506;9.050;2023-05-07T01:51:42;14.20;99.90
13488;DHT22;6816;48.506;9.050;2023-05-07T01:54:44;14.20;99.90
13488;DHT22;6816;48.506;9.050;2023-05-07T01:57:44;14.20;99.90
13488;DHT22;6816;48.506;9.050;2023-05-07T02:00:46;14.10;99.90
13488;DHT22;6816;48.506;9.050;2023-05-07T02:03:47;14.10;99.90
13488;DHT22;6816;48.506;9.050;2023-05-07T02:06:47;14.20;99.90
13488;DHT22;6816;48.506;9.050;2023-05-07T02:09:48;14.10;99.90
13488;DHT22;6816;48.506;9.050;2023-05-07T02:12:52;14.10;99.90
13488;DHT22;6816;48.506;9.050;2023-05-07T02:15:53;14.10;99.90
13488;DHT22;6816;48.506;9.050;2023-05-07T02:18:54;14.10;99.90
13488;DHT22;6816;48.506;9.050;2023-05-07T02:21:55;14.00;99.90
13488;DHT22;6816;48.506;9.050;2023-05-07T02:24:56;14.00;99.90
13488;DHT22;6816;48.506;9.050;2023-05-07T02:27:56;14.00;99.90
13488;DHT22;6816;48.506;9.050;2023-05-07T02:30:57;13.90;99.90
13488;DHT22;6816;48.506;9.050;2023-05-07T02:34:01;13.90;99.90
13488;DHT22;6816;48.506;9.050;2023-05-07T02:37:02;13.80;99.90
13488;DHT22;6816;48.506;9.050;2023-05-07T02:40:03;13.70;99.90
13488;DHT22;6816;48.506;9.050;2023-05-07T02:43:05;13.80;99.90
13488;DHT22;6816;48.506;9.050;2023-05-07T02:46:07;14.00;99.90
13488;DHT22;6816;48.506;9.050;2023-05-07T02:49:08;13.70;99.90
13488;DHT22;6816;48.506;9.050;2023-05-07T02:52:09;13.70;99.90
13488;DHT22;6816;48.506;9.050;2023-05-07T02:55:09;13.60;99.90
13488;DHT22;6816;48.506;9.050;2023-05-07T02:58:11;13.60;99.90
13488;DHT22;6816;48.506;9.050;2023-05-07T03:01:11;13.50;99.90
13488;DHT22;6816;48.506;9.050;2023-05-07T03:04:14;13.50;99.90
13488;DHT22;6816;48.506;9.050;2023-05-07T03:07:14;13.40;99.90
13488;DHT22;6816;48.506;9.050;2023-05-07T03:10:15;13.40;99.90
13488;DHT22;6816;48.506;9.050;2023-05-07T03:13:16;13.30;99.90
13488;DHT22;6816;48.506;9.050;2023-05-07T03:16:17;13.30;99.90
13488;DHT22;6816;48.506;9.050;2023-05-07T03:19:17;13.30;99.90
13488;DHT22;6816;48.506;9.050;2023-05-07T03:22:18;13.30;99.90
13488;DHT22;6816;48.506;9.050;2023-05-07T03:25:19;13.30;99.90
13488;DHT22;6816;48.506;9.050;2023-05-07T03:28:19;13.20;99.90
13488;DHT22;6816;48.506;9.050;2023-05-07T03:31:20;13.30;99.90
13488;DHT22;6816;48.506;9.050;2023-05-07T03:34:20;13.10;99.90
13488;DHT22;6816;48.506;9.050;2023-05-07T03:37:22;13.10;99.90
13488;DHT22;6816;48.506;9.050;2023-05-07T03:40:23;13.10;99.90
13488;DHT22;6816;48.506;9.050;2023-05-07T03:43:23;13.00;99.90
13488;DHT22;6816;48.506;9.050;2023-05-07T03:46:24;13.00;99.90
13488;DHT22;6816;48.506;9.050;2023-05-07T03:49:26;13.00;99.90
13488;DHT22;6816;48.506;9.050;2023-05-07T03:52:27;13.00;99.90
13488;DHT22;6816;48.506;9.050;2023-05-07T03:55:27;13.00;99.90
13488;DHT22;6816;48.506;9.050;2023-05-07T03:58:29;13.10;99.90
13488;DHT22;6816;48.506;9.050;2023-05-07T04:01:29;13.00;99.90
13488;DHT22;6816;48.506;9.050;2023-05-07T04:08:15;12.90;99.90
13488;DHT22;6816;48.506;9.050;2023-05-07T04:11:17;13.00;99.90
13488;DHT22;6816;48.506;9.050;2023-05-07T04:14:18;12.90;99.90
13488;DHT22;6816;48.506;9.050;2023-05-07T04:17:19;12.90;99.90
13488;DHT22;6816;48.506;9.050;2023-05-07T04:20:19;12.90;99.90
13488;DHT22;6816;48.506;9.050;2023-05-07T04:23:20;12.90;99.90
13488;DHT22;6816;48.506;9.050;2023-05-07T04:26:21;12.90;99.90
13488;DHT22;6816;48.506;9.050;2023-05-07T04:29:22;12.90;99.90
13488;DHT22;6816;48.506;9.050;2023-05-07T04:32:22;12.90;99.90
13488;DHT22;6816;48.506;9.050;2023-05-07T04:35:25;12.90;99.90
13488;DHT22;6816;48.506;9.050;2023-05-07T04:38:25;12.90;99.90
13488;DHT22;6816;48.506;9.050;2023-05-07T04:41:26;12.90;99.90
13488;DHT22;6816;48.506;9.050;2023-05-07T04:44:27;12.90;99.90
13488;DHT22;6816;48.506;9.050;2023-05-07T04:47:27;12.80;99.90
13488;DHT22;6816;48.506;9.050;2023-05-07T04:50:28;12.90;99.90
13488;DHT22;6816;48.506;9.050;2023-05-07T04:53:35;13.20;99.90
13488;DHT22;6816;48.506;9.050;2023-05-07T04:56:40;13.00;99.90
13488;DHT22;6816;48.506;9.050;2023-05-07T04:59:42;13.00;99.90
13488;DHT22;6816;48.506;9.050;2023-05-07T05:02:43;13.00;99.90
13488;DHT22;6816;48.506;9.050;2023-05-07T05:05:43;13.10;99.90
13488;DHT22;6816;48.506;9.050;2023-05-07T05:08:44;13.10;99.90
13488;DHT22;6816;48.506;9.050;2023-05-07T05:11:45;13.40;99.90
13488;DHT22;6816;48.506;9.050;2023-05-07T05:14:46;13.30;99.90
13488;DHT22;6816;48.506;9.050;2023-05-07T05:17:46;13.40;99.90
13488;DHT22;6816;48.506;9.050;2023-05-07T05:20:47;13.50;99.90
13488;DHT22;6816;48.506;9.050;2023-05-07T05:23:48;13.60;99.90
13488;DHT22;6816;48.506;9.050;2023-05-07T05:26:48;13.90;99.90
13488;DHT22;6816;48.506;9.050;2023-05-07T05:29:49;14.10;99.90
13488;DHT22;6816;48.506;9.050;2023-05-07T05:32:50;14.20;99.90
13488;DHT22;6816;48.506;9.050;2023-05-07T05:35:51;14.60;99.90
13488;DHT22;6816;48.506;9.050;2023-05-07T05:38:51;14.80;99.90
13488;DHT22;6816;48.506;9.050;2023-05-07T05:41:52;15.10;99.90
13488;DHT22;6816;48.506;9.050;2023-05-07T05:44:52;15.30;99.90
13488;DHT22;6816;48.506;9.050;2023-05-07T05:47:56;15.50;99.90
13488;DHT22;6816;48.506;9.050;2023-05-07T05:50:56;15.70;99.90
13488;DHT22;6816;48.506;9.050;2023-05-07T05:53:58;15.80;99.90
13488;DHT22;6816;48.506;9.050;2023-05-07T05:56:58;16.00;99.90
13488;DHT22;6816;48.506;9.050;2023-05-07T06:00:00;16.10;99.90
13488;DHT22;6816;48.506;9.050;2023-05-07T06:03:01;16.30;99.90
13488;DHT22;6816;48.506;9.050;2023-05-07T06:06:01;16.40;99.90
13488;DHT22;6816;48.506;9.050;2023-05-07T06:09:02;16.60;99.90
13488;DHT22;6816;48.506;9.050;2023-05-07T06:12:03;16.70;99.90
13488;DHT22;6816;48.506;9.050;2023-05-07T06:15:04;16.80;99.90
13488;DHT22;6816;48.506;9.050;2023-05-07T06:21:59;16.90;99.90
13488;DHT22;6816;48.506;9.050;2023-05-07T06:25:02;17.00;99.90
13488;DHT22;6816;48.506;9.050;2023-05-07T06:28:02;17.10;99.90
13488;DHT22;6816;48.506;9.050;2023-05-07T06:31:17;17.20;99.90
13488;DHT22;6816;48.506;9.050;2023-05-07T06:34:20;17.30;99.90
13488;DHT22;6816;48.506;9.050;2023-05-07T06:37:21;17.50;99.90
13488;DHT22;6816;48.506;9.050;2023-05-07T06:40:21;17.60;99.90
13488;DHT22;6816;48.506;9.050;2023-05-07T06:43:22;17.70;99.90
13488;DHT22;6816;48.506;9.050;2023-05-07T06:46:23;17.80;99.90
13488;DHT22;6816;48.506;9.050;2023-05-07T06:49:24;17.90;99.90
13488;DHT22;6816;48.506;9.050;2023-05-07T06:52:24;18.00;99.90
13488;DHT22;6816;48.506;9.050;2023-05-07T06:55:25;18.00;99.90
13488;DHT22;6816;48.506;9.050;2023-05-07T06:58:25;18.10;99.90
13488;DHT22;6816;48.506;9.050;2023-05-07T07:01:26;18.20;99.90
13488;DHT22;6816;48.506;9.050;2023-05-07T07:04:27;18.20;99.90
13488;DHT22;6816;48.506;9.050;2023-05-07T07:07:33;18.30;99.90
13488;DHT22;6816;48.506;9.050;2023-05-07T07:10:39;18.40;99.90
13488;DHT22;6816;48.506;9.050;2023-05-07T07:13:50;18.50;99.90
13488;DHT22;6816;48.506;9.050;2023-05-07T07:16:53;18.60;99.90
13488;DHT22;6816;48.506;9.050;2023-05-07T07:19:53;18.80;99.90
13488;DHT22;6816;48.506;9.050;2023-05-07T07:22:55;18.90;99.90
13488;DHT22;6816;48.506;9.050;2023-05-07T07:25:56;19.00;99.90
13488;DHT22;6816;48.506;9.050;2023-05-07T07:28:57;19.20;99.90
13488;DHT22;6816;48.506;9.050;2023-05-07T07:31:58;19.40;99.90
13488;DHT22;6816;48.506;9.050;2023-05-07T07:35:01;19.60;99.90
13488;DHT22;6816;48.506;9.050;2023-05-07T07:38:04;19.80;99.90
13488;DHT22;6816;48.506;9.050;2023-05-07T07:41:08;20.00;99.90
13488;DHT22;6816;48.506;9.050;2023-05-07T07:44:09;20.20;99.90
13488;DHT22;6816;48.506;9.050;2023-05-07T07:47:13;20.30;99.90
13488;DHT22;6816;48.506;9.050;2023-05-07T07:50:19;20.50;99.90
13488;DHT22;6816;48.506;9.050;2023-05-07T07:53:21;20.40;99.90
13488;DHT22;6816;48.506;9.050;2023-05-07T07:56:22;20.40;99.90
13488;DHT22;6816;48.506;9.050;2023-05-07T07:59:23;20.30;99.90
13488;DHT22;6816;48.506;9.050;2023-05-07T08:02:24;20.30;99.90
13488;DHT22;6816;48.506;9.050;2023-05-07T08:05:33;20.20;99.90
13488;DHT22;6816;48.506;9.050;2023-05-07T08:08:37;20.40;99.90
13488;DHT22;6816;48.506;9.050;2023-05-07T08:11:40;20.40;99.90
13488;DHT22;6816;48.506;9.050;2023-05-07T08:14:41;20.30;99.90
13488;DHT22;6816;48.506;9.050;2023-05-07T08:17:44;20.30;99.90
13488;DHT22;6816;48.506;9.050;2023-05-07T08:20:50;20.30;99.90
13488;DHT22;6816;48.506;9.050;2023-05-07T08:23:51;20.20;99.90
13488;DHT22;6816;48.506;9.050;2023-05-07T08:26:53;20.30;99.90
13488;DHT22;6816;48.506;9.050;2023-05-07T08:29:54;20.20;99.90
13488;DHT22;6816;48.506;9.050;2023-05-07T08:32:55;20.40;99.90
13488;DHT22;6816;48.506;9.050;2023-05-07T08:35:59;20.40;99.90
13488;DHT22;6816;48.506;9.050;2023-05-07T08:39:00;20.30;99.90
13488;DHT22;6816;48.506;9.050;2023-05-07T08:42:06;20.50;99.90
13488;DHT22;6816;48.506;9.050;2023-05-07T08:45:13;20.60;99.90
13488;DHT22;6816;48.506;9.050;2023-05-07T08:48:16;20.70;99.90
13488;DHT22;6816;48.506;9.050;2023-05-07T08:51:20;20.80;99.90
13488;DHT22;6816;48.506;9.050;2023-05-07T08:54:24;21.10;99.90
13488;DHT22;6816;48.506;9.050;2023-05-07T08:57:25;21.30;99.90
13488;DHT22;6816;48.506;9.050;2023-05-07T09:00:28;21.60;99.90
13488;DHT22;6816;48.506;9.050;2023-05-07T09:03:32;21.70;99.90
13488;DHT22;6816;48.506;9.050;2023-05-07T09:06:33;21.90;99.90
13488;DHT22;6816;48.506;9.050;2023-05-07T09:09:36;22.10;99.90
13488;DHT22;6816;48.506;9.050;2023-05-07T09:12:52;22.30;99.90
13488;DHT22;6816;48.506;9.050;2023-05-07T09:15:52;22.50;98.60
13488;DHT22;6816;48.506;9.050;2023-05-07T09:19:12;22.50;99.90
13488;DHT22;6816;48.506;9.050;2023-05-07T09:22:33;22.60;96.40
13488;DHT22;6816;48.506;9.050;2023-05-07T09:25:49;23.10;97.40
13488;DHT22;6816;48.506;9.050;2023-05-07T09:28:51;23.30;99.40
13488;DHT22;6816;48.506;9.050;2023-05-07T09:31:55;23.50;98.40
13488;DHT22;6816;48.506;9.050;2023-05-07T09:35:25;23.60;97.90
13488;DHT22;6816;48.506;9.050;2023-05-07T09:38:48;23.80;94.90
13488;DHT22;6816;48.506;9.050;2023-05-07T09:45:00;23.90;96.50
13488;DHT22;6816;48.506;9.050;2023-05-07T09:48:08;24.00;96.30
13488;DHT22;6816;48.506;9.050;2023-05-07T09:51:25;24.20;94.60
13488;DHT22;6816;48.506;9.050;2023-05-07T09:54:29;24.30;93.30
13488;DHT22;6816;48.506;9.050;2023-05-07T09:57:31;24.30;95.30
13488;DHT22;6816;48.506;9.050;2023-05-07T10:00:32;24.40;95.50
13488;DHT22;6816;48.506;9.050;2023-05-07T10:03:34;24.50;94.70
13488;DHT22;6816;48.506;9.050;2023-05-07T10:06:37;24.60;94.30
13488;DHT22;6816;48.506;9.050;2023-05-07T10:09:41;24.70;94.90
13488;DHT22;6816;48.506;9.050;2023-05-07T10:12:44;24.80;94.90
13488;DHT22;6816;48.506;9.050;2023-05-07T10:15:45;24.90;95.10
13488;DHT22;6816;48.506;9.050;2023-05-07T10:18:47;25.00;94.40
13488;DHT22;6816;48.506;9.050;2023-05-07T10:21:59;25.20;94.50
13488;DHT22;6816;48.506;9.050;2023-05-07T10:25:02;25.20;92.80
13488;DHT22;6816;48.506;9.050;2023-05-07T10:28:06;25.40;92.50
13488;DHT22;6816;48.506;9.050;2023-05-07T10:34:32;25.60;90.00
13488;DHT22;6816;48.506;9.050;2023-05-07T10:37:34;25.70;92.20
13488;DHT22;6816;48.506;9.050;2023-05-07T10:40:35;25.80;93.00
13488;DHT22;6816;48.506;9.050;2023-05-07T10:43:40;25.90;92.50
13488;DHT22;6816;48.506;9.050;2023-05-07T10:46:42;26.00;91.30
13488;DHT22;6816;48.506;9.050;2023-05-07T10:52:43;26.10;91.10
13488;DHT22;6816;48.506;9.050;2023-05-07T10:55:49;26.30;90.80
13488;DHT22;6816;48.506;9.050;2023-05-07T10:58:50;26.40;87.10
13488;DHT22;6816;48.506;9.050;2023-05-07T11:01:52;26.40;90.20
13488;DHT22;6816;48.506;9.050;2023-05-07T11:05:29;26.50;89.40
13488;DHT22;6816;48.506;9.050;2023-05-07T11:08:56;26.60;82.80
13488;DHT22;6816;48.506;9.050;2023-05-07T11:11:57;26.70;83.60
13488;DHT22;6816;48.506;9.050;2023-05-07T11:14:58;26.70;89.00
13488;DHT22;6816;48.506;9.050;2023-05-07T11:17:59;26.80;87.60
13488;DHT22;6816;48.506;9.050;2023-05-07T11:21:00;26.90;86.20
13488;DHT22;6816;48.506;9.050;2023-05-07T11:24:05;26.90;86.60
13488;DHT22;6816;48.506;9.050;2023-05-07T11:27:06;27.00;85.40
13488;DHT22;6816;48.506;9.050;2023-05-07T11:30:07;26.90;84.60
13488;DHT22;6816;48.506;9.050;2023-05-07T11:33:08;26.90;85.00
13488;DHT22;6816;48.506;9.050;2023-05-07T11:36:09;26.80;85.00
13488;DHT22;6816;48.506;9.050;2023-05-07T11:39:33;26.80;83.80
13488;DHT22;6816;48.506;9.050;2023-05-07T11:42:37;26.70;79.00
13488;DHT22;6816;48.506;9.050;2023-05-07T11:45:38;26.60;83.20
13488;DHT22;6816;48.506;9.050;2023-05-07T11:48:39;26.50;83.20
13488;DHT22;6816;48.506;9.050;2023-05-07T11:51:40;26.40;82.40
13488;DHT22;6816;48.506;9.050;2023-05-07T11:54:55;26.30;83.20
13488;DHT22;6816;48.506;9.050;2023-05-07T11:57:56;26.20;79.80
13488;DHT22;6816;48.506;9.050;2023-05-07T12:00:57;26.10;82.90
13488;DHT22;6816;48.506;9.050;2023-05-07T12:03:57;25.90;83.30
13488;DHT22;6816;48.506;9.050;2023-05-07T12:06:58;25.80;84.10
13488;DHT22;6816;48.506;9.050;2023-05-07T12:09:59;25.70;83.60
13488;DHT22;6816;48.506;9.050;2023-05-07T12:12:59;25.60;83.70
13488;DHT22;6816;48.506;9.050;2023-05-07T12:16:00;25.50;84.10
13488;DHT22;6816;48.506;9.050;2023-05-07T12:19:03;25.40;85.50
13488;DHT22;6816;48.506;9.050;2023-05-07T12:22:04;25.20;86.60
13488;DHT22;6816;48.506;9.050;2023-05-07T12:25:06;25.10;87.30
13488;DHT22;6816;48.506;9.050;2023-05-07T12:28:07;24.90;88.00
13488;DHT22;6816;48.506;9.050;2023-05-07T12:31:08;24.70;88.50
13488;DHT22;6816;48.506;9.050;2023-05-07T12:34:11;24.50;89.10
13488;DHT22;6816;48.506;9.050;2023-05-07T12:37:12;24.20;89.40
13488;DHT22;6816;48.506;9.050;2023-05-07T12:40:13;24.00;90.10
13488;DHT22;6816;48.506;9.050;2023-05-07T12:43:24;23.80;90.40
13488;DHT22;6816;48.506;9.050;2023-05-07T12:46:25;23.60;90.00
13488;DHT22;6816;48.506;9.050;2023-05-07T12:49:26;23.50;90.70
13488;DHT22;6816;48.506;9.050;2023-05-07T12:52:26;23.20;90.40
13488;DHT22;6816;48.506;9.050;2023-05-07T12:55:28;23.10;90.50
13488;DHT22;6816;48.506;9.050;2023-05-07T12:58:32;22.90;90.50
13488;DHT22;6816;48.506;9.050;2023-05-07T13:01:34;22.70;90.70
13488;DHT22;6816;48.506;9.050;2023-05-07T13:04:35;22.50;90.80
13488;DHT22;6816;48.506;9.050;2023-05-07T13:07:36;22.40;91.00
13488;DHT22;6816;48.506;9.050;2023-05-07T13:10:37;22.10;91.10
13488;DHT22;6816;48.506;9.050;2023-05-07T13:13:39;21.90;91.30
13488;DHT22;6816;48.506;9.050;2023-05-07T13:16:40;21.60;91.50
13488;DHT22;6816;48.506;9.050;2023-05-07T13:19:41;21.30;91.80
13488;DHT22;6816;48.506;9.050;2023-05-07T13:22:42;21.00;92.10
13488;DHT22;6816;48.506;9.050;2023-05-07T13:25:42;20.70;92.40
13488;DHT22;6816;48.506;9.050;2023-05-07T13:28:43;20.40;93.00
13488;DHT22;6816;48.506;9.050;2023-05-07T13:31:44;20.10;94.00
13488;DHT22;6816;48.506;9.050;2023-05-07T13:34:44;19.90;94.30
13488;DHT22;6816;48.506;9.050;2023-05-07T13:37:48;19.70;94.90
13488;DHT22;6816;48.506;9.050;2023-05-07T13:40:49;19.50;95.50
13488;DHT22;6816;48.506;9.050;2023-05-07T13:43:50;19.30;96.10
13488;DHT22;6816;48.506;9.050;2023-05-07T13:46:50;19.20;96.60
13488;DHT22;6816;48.506;9.050;2023-05-07T13:49:51;19.10;97.00
13488;DHT22;6816;48.506;9.050;2023-05-07T13:52:52;19.00;97.40
13488;DHT22;6816;48.506;9.050;2023-05-07T13:55:53;18.90;97.90
13488;DHT22;6816;48.506;9.050;2023-05-07T13:58:53;18.80;98.50
13488;DHT22;6816;48.506;9.050;2023-05-07T14:01:54;18.70;99.10
13488;DHT22;6816;48.506;9.050;2023-05-07T14:04:55;18.60;99.60
13488;DHT22;6816;48.506;9.050;2023-05-07T14:07:57;18.60;99.90
13488;DHT22;6816;48.506;9.050;2023-05-07T14:10:58;18.50;99.90
13488;DHT22;6816;48.506;9.050;2023-05-07T14:13:58;18.40;99.90
13488;DHT22;6816;48.506;9.050;2023-05-07T14:16:59;18.40;99.90
13488;DHT22;6816;48.506;9.050;2023-05-07T14:20:08;18.30;99.90
13488;DHT22;6816;48.506;9.050;2023-05-07T14:23:09;18.30;99.90
13488;DHT22;6816;48.506;9.050;2023-05-07T14:26:10;18.30;99.90
13488;DHT22;6816;48.506;9.050;2023-05-07T14:29:10;18.30;99.90
13488;DHT22;6816;48.506;9.050;2023-05-07T14:32:11;18.20;99.90
13488;DHT22;6816;48.506;9.050;2023-05-07T14:35:12;18.20;99.90
13488;DHT22;6816;48.506;9.050;2023-05-07T14:38:13;18.20;99.90
13488;DHT22;6816;48.506;9.050;2023-05-07T14:41:13;18.20;99.90
13488;DHT22;6816;48.506;9.050;2023-05-07T14:44:15;18.20;99.90
13488;DHT22;6816;48.506;9.050;2023-05-07T14:47:21;18.20;99.90
13488;DHT22;6816;48.506;9.050;2023-05-07T14:53:29;18.30;99.90
13488;DHT22;6816;48.506;9.050;2023-05-07T14:56:30;18.30;99.90
13488;DHT22;6816;48.506;9.050;2023-05-07T14:59:31;18.30;99.90
13488;DHT22;6816;48.506;9.050;2023-05-07T15:02:32;18.40;99.90
13488;DHT22;6816;48.506;9.050;2023-05-07T15:05:33;18.40;99.90
13488;DHT22;6816;48.506;9.050;2023-05-07T15:08:34;18.50;99.90
13488;DHT22;6816;48.506;9.050;2023-05-07T15:11:35;18.60;99.90
13488;DHT22;6816;48.506;9.050;2023-05-07T15:14:35;18.60;99.90
13488;DHT22;6816;48.506;9.050;2023-05-07T15:17:36;18.70;99.90
13488;DHT22;6816;48.506;9.050;2023-05-07T15:20:37;18.70;99.90
13488;DHT22;6816;48.506;9.050;2023-05-07T15:23:37;18.80;99.90
13488;DHT22;6816;48.506;9.050;2023-05-07T15:26:38;18.90;99.90
13488;DHT22;6816;48.506;9.050;2023-05-07T15:29:39;18.90;99.90
13488;DHT22;6816;48.506;9.050;2023-05-07T15:32:43;19.00;99.90
13488;DHT22;6816;48.506;9.050;2023-05-07T15:35:43;19.10;99.90
13488;DHT22;6816;48.506;9.050;2023-05-07T15:38:44;19.20;99.90
13488;DHT22;6816;48.506;9.050;2023-05-07T15:41:45;19.20;99.90
13488;DHT22;6816;48.506;9.050;2023-05-07T15:44:45;19.30;99.90
13488;DHT22;6816;48.506;9.050;2023-05-07T15:47:46;19.30;99.90
13488;DHT22;6816;48.506;9.050;2023-05-07T15:50:47;19.40;99.90
13488;DHT22;6816;48.506;9.050;2023-05-07T15:53:48;19.40;99.90
13488;DHT22;6816;48.506;9.050;2023-05-07T15:56:49;19.50;99.90
13488;DHT22;6816;48.506;9.050;2023-05-07T15:59:50;19.50;99.90
13488;DHT22;6816;48.506;9.050;2023-05-07T16:02:51;19.60;99.90
13488;DHT22;6816;48.506;9.050;2023-05-07T16:05:51;19.60;99.90
13488;DHT22;6816;48.506;9.050;2023-05-07T16:08:52;19.60;99.90
13488;DHT22;6816;48.506;9.050;2023-05-07T16:11:53;19.70;99.90
13488;DHT22;6816;48.506;9.050;2023-05-07T16:14:53;19.70;99.90
13488;DHT22;6816;48.506;9.050;2023-05-07T16:17:54;19.70;99.90
13488;DHT22;6816;48.506;9.050;2023-05-07T16:20:57;19.70;99.90
13488;DHT22;6816;48.506;9.050;2023-05-07T16:23:59;19.70;99.90
13488;DHT22;6816;48.506;9.050;2023-05-07T16:27:00;19.70;99.90
13488;DHT22;6816;48.506;9.050;2023-05-07T16:30:01;19.70;99.90
13488;DHT22;6816;48.506;9.050;2023-05-07T16:33:02;19.70;99.90
13488;DHT22;6816;48.506;9.050;2023-05-07T16:36:03;19.60;99.90
13488;DHT22;6816;48.506;9.050;2023-05-07T16:39:04;19.70;99.90
13488;DHT22;6816;48.506;9.050;2023-05-07T16:42:05;19.60;99.90
13488;DHT22;6816;48.506;9.050;2023-05-07T16:45:06;19.60;99.90
13488;DHT22;6816;48.506;9.050;2023-05-07T16:48:07;19.60;99.90
13488;DHT22;6816;48.506;9.050;2023-05-07T16:51:07;19.50;99.90
13488;DHT22;6816;48.506;9.050;2023-05-07T16:54:08;19.60;99.90
13488;DHT22;6816;48.506;9.050;2023-05-07T16:57:09;19.50;99.90
13488;DHT22;6816;48.506;9.050;2023-05-07T17:00:10;19.50;99.90
13488;DHT22;6816;48.506;9.050;2023-05-07T17:03:11;19.50;99.90
13488;DHT22;6816;48.506;9.050;2023-05-07T17:06:12;19.40;99.90
13488;DHT22;6816;48.506;9.050;2023-05-07T17:09:14;19.40;99.90
13488;DHT22;6816;48.506;9.050;2023-05-07T17:12:15;19.40;99.90
13488;DHT22;6816;48.506;9.050;2023-05-07T17:15:15;19.40;99.90
13488;DHT22;6816;48.506;9.050;2023-05-07T17:18:16;19.40;99.90
13488;DHT22;6816;48.506;9.050;2023-05-07T17:21:16;19.40;99.90
13488;DHT22;6816;48.506;9.050;2023-05-07T17:24:17;19.30;99.90
13488;DHT22;6816;48.506;9.050;2023-05-07T17:27:18;19.30;99.90
13488;DHT22;6816;48.506;9.050;2023-05-07T17:30:20;19.30;99.90
13488;DHT22;6816;48.506;9.050;2023-05-07T17:33:20;19.20;99.90
13488;DHT22;6816;48.506;9.050;2023-05-07T17:36:21;19.20;99.90
13488;DHT22;6816;48.506;9.050;2023-05-07T17:39:21;19.20;99.90
13488;DHT22;6816;48.506;9.050;2023-05-07T17:42:22;19.10;99.90
13488;DHT22;6816;48.506;9.050;2023-05-07T17:45:23;19.10;99.90
13488;DHT22;6816;48.506;9.050;2023-05-07T17:48:24;19.10;99.90
13488;DHT22;6816;48.506;9.050;2023-05-07T17:51:24;19.00;99.90
13488;DHT22;6816;48.506;9.050;2023-05-07T17:54:25;19.00;99.90
13488;DHT22;6816;48.506;9.050;2023-05-07T17:57:26;19.00;99.90
13488;DHT22;6816;48.506;9.050;2023-05-07T18:00:27;19.00;99.90
13488;DHT22;6816;48.506;9.050;2023-05-07T18:03:27;18.90;99.90
13488;DHT22;6816;48.506;9.050;2023-05-07T18:06:29;18.90;99.90
13488;DHT22;6816;48.506;9.050;2023-05-07T18:09:31;18.90;99.90
13488;DHT22;6816;48.506;9.050;2023-05-07T18:12:31;18.90;99.90
13488;DHT22;6816;48.506;9.050;2023-05-07T18:15:32;18.80;99.90
13488;DHT22;6816;48.506;9.050;2023-05-07T18:18:33;18.80;99.90
13488;DHT22;6816;48.506;9.050;2023-05-07T18:21:35;18.80;99.90
13488;DHT22;6816;48.506;9.050;2023-05-07T18:24:35;18.80;99.90
13488;DHT22;6816;48.506;9.050;2023-05-07T18:27:36;18.70;99.90
13488;DHT22;6816;48.506;9.050;2023-05-07T18:30:38;18.70;99.90
13488;DHT22;6816;48.506;9.050;2023-05-07T18:33:38;18.70;99.90
13488;DHT22;6816;48.506;9.050;2023-05-07T18:36:39;18.70;99.90
13488;DHT22;6816;48.506;9.050;2023-05-07T18:39:40;18.60;99.90
13488;DHT22;6816;48.506;9.050;2023-05-07T18:42:42;18.50;99.90
13488;DHT22;6816;48.506;9.050;2023-05-07T18:45:46;18.60;99.90
13488;DHT22;6816;48.506;9.050;2023-05-07T18:48:47;18.50;99.90
13488;DHT22;6816;48.506;9.050;2023-05-07T18:51:48;18.50;99.90
13488;DHT22;6816;48.506;9.050;2023-05-07T18:54:50;18.40;99.90
13488;DHT22;6816;48.506;9.050;2023-05-07T18:57:50;18.40;99.90
13488;DHT22;6816;48.506;9.050;2023-05-07T19:00:52;18.40;99.90
13488;DHT22;6816;48.506;9.050;2023-05-07T19:03:53;18.40;99.90
13488;DHT22;6816;48.506;9.050;2023-05-07T19:06:54;18.30;99.90
13488;DHT22;6816;48.506;9.050;2023-05-07T19:09:54;18.30;99.90
13488;DHT22;6816;48.506;9.050;2023-05-07T19:12:55;18.30;99.90
13488;DHT22;6816;48.506;9.050;2023-05-07T19:15:56;18.30;99.90
13488;DHT22;6816;48.506;9.050;2023-05-07T19:18:57;18.20;99.90
13488;DHT22;6816;48.506;9.050;2023-05-07T19:21:59;18.20;99.90
13488;DHT22;6816;48.506;9.050;2023-05-07T19:25:21;18.30;99.90
13488;DHT22;6816;48.506;9.050;2023-05-07T19:28:25;18.20;99.90
13488;DHT22;6816;48.506;9.050;2023-05-07T19:31:27;18.20;99.90
13488;DHT22;6816;48.506;9.050;2023-05-07T19:34:28;18.20;99.90
13488;DHT22;6816;48.506;9.050;2023-05-07T19:37:30;18.20;99.90
13488;DHT22;6816;48.506;9.050;2023-05-07T19:40:30;18.20;99.90
13488;DHT22;6816;48.506;9.050;2023-05-07T19:43:32;18.20;99.90
13488;DHT22;6816;48.506;9.050;2023-05-07T19:46:35;18.10;99.90
13488;DHT22;6816;48.506;9.050;2023-05-07T19:49:39;18.20;99.90
13488;DHT22;6816;48.506;9.050;2023-05-07T19:52:39;18.20;99.90